createdAt,value
2022-10-31T00:00:12.465Z,12.10
2022-10-31T00:03:04.644Z,12.10
2022-10-31T00:05:56.730Z,12.10
2022-10-31T00:08:57.475Z,12.00
2022-10-31T00:11:49.518Z,12.10
2022-10-31T00:14:41.629Z,12.10
2022-10-31T00:17:37.259Z,12.10
2022-10-31T00:20:29.731Z,12.10
2022-10-31T00:23:21.825Z,12.20
2022-10-31T00:26:14.076Z,12.10
2022-10-31T00:29:06.368Z,12.10
2022-10-31T00:31:58.554Z,12.20
2022-10-31T00:34:50.653Z,12.20
2022-10-31T00:37:42.763Z,12.00
2022-10-31T00:40:34.891Z,11.90
2022-10-31T00:43:27.034Z,11.90
2022-10-31T00:46:19.120Z,11.90
2022-10-31T00:49:11.311Z,12.00
2022-10-31T00:52:03.453Z,12.00
2022-10-31T00:54:55.554Z,12.10
2022-10-31T00:57:48.685Z,12.10
2022-10-31T01:00:40.828Z,12.00
2022-10-31T01:03:34.253Z,11.80
2022-10-31T01:06:26.373Z,11.70
2022-10-31T01:09:18.641Z,11.50
2022-10-31T01:12:10.980Z,11.50
2022-10-31T01:15:03.658Z,11.40
2022-10-31T01:17:55.945Z,11.40
2022-10-31T01:20:48.135Z,11.40
2022-10-31T01:23:40.785Z,11.20
2022-10-31T01:26:34.151Z,11.20
2022-10-31T01:29:26.270Z,11.20
2022-10-31T01:32:18.419Z,11.20
2022-10-31T01:35:10.535Z,11.10
2022-10-31T01:38:02.674Z,11.00
2022-10-31T01:40:54.868Z,10.90
2022-10-31T01:43:59.446Z,10.90
2022-10-31T01:47:15.340Z,10.80
2022-10-31T01:50:15.176Z,10.70
2022-10-31T01:53:09.252Z,10.60
2022-10-31T01:56:01.801Z,10.50
2022-10-31T01:58:55.415Z,10.50
2022-10-31T02:01:48.703Z,10.50
2022-10-31T02:04:42.096Z,10.40
2022-10-31T02:07:43.698Z,10.40
2022-10-31T02:10:37.758Z,10.40
2022-10-31T02:13:31.033Z,10.40
2022-10-31T02:16:23.140Z,10.40
2022-10-31T02:19:32.583Z,10.40
2022-10-31T02:22:39.446Z,10.40
2022-10-31T02:25:46.609Z,10.40
2022-10-31T02:28:47.475Z,10.30
2022-10-31T02:31:39.547Z,10.30
2022-10-31T02:34:45.171Z,10.30
2022-10-31T02:38:14.908Z,10.30
2022-10-31T02:41:30.192Z,10.30
2022-10-31T02:44:28.022Z,10.30
2022-10-31T02:47:27.651Z,10.30
2022-10-31T02:50:26.728Z,10.30
2022-10-31T02:53:18.878Z,10.30
2022-10-31T02:56:15.697Z,10.20
2022-10-31T02:59:07.856Z,10.20
2022-10-31T03:02:27.192Z,10.20
2022-10-31T03:05:56.152Z,10.20
2022-10-31T03:09:10.581Z,10.20
2022-10-31T03:12:17.393Z,10.20
2022-10-31T03:15:37.763Z,10.20
2022-10-31T03:18:35.305Z,10.20
2022-10-31T03:21:32.085Z,10.10
2022-10-31T03:24:29.727Z,10.20
2022-10-31T03:27:26.528Z,10.20
2022-10-31T03:30:18.927Z,10.20
2022-10-31T03:33:16.201Z,10.20
2022-10-31T03:36:11.666Z,10.10
2022-10-31T03:39:06.958Z,10.10
2022-10-31T03:42:07.118Z,10.10
2022-10-31T03:45:07.953Z,10.20
2022-10-31T03:48:00.651Z,10.20
2022-10-31T03:51:16.884Z,10.20
2022-10-31T03:54:25.097Z,10.20
2022-10-31T03:57:49.407Z,10.20
2022-10-31T04:00:45.544Z,10.10
2022-10-31T04:03:39.083Z,10.20
2022-10-31T04:06:33.299Z,10.20
2022-10-31T04:09:28.357Z,10.10
2022-10-31T04:12:21.679Z,10.10
2022-10-31T04:15:14.262Z,10.20
2022-10-31T04:18:06.918Z,10.20
2022-10-31T04:21:04.707Z,10.20
2022-10-31T04:23:57.505Z,10.30
2022-10-31T04:26:49.617Z,10.30
2022-10-31T04:29:44.404Z,10.40
2022-10-31T04:32:38.997Z,10.50
2022-10-31T04:35:31.184Z,10.60
2022-10-31T04:38:23.371Z,10.70
2022-10-31T04:41:15.501Z,10.80
2022-10-31T04:44:07.622Z,10.90
2022-10-31T04:46:59.752Z,10.90
2022-10-31T04:49:51.868Z,10.90
2022-10-31T04:52:45.604Z,11.00
2022-10-31T04:55:37.800Z,11.00
2022-10-31T04:58:30.255Z,10.90
2022-10-31T05:01:22.486Z,11.00
2022-10-31T05:04:14.675Z,11.00
2022-10-31T05:07:06.795Z,11.00
2022-10-31T05:09:58.885Z,11.00
2022-10-31T05:12:56.703Z,11.10
2022-10-31T05:15:50.201Z,11.10
2022-10-31T05:18:42.333Z,11.10
2022-10-31T05:21:34.487Z,11.20
2022-10-31T05:24:26.579Z,11.20
2022-10-31T05:27:18.710Z,11.20
2022-10-31T05:30:13.051Z,11.20
2022-10-31T05:33:05.217Z,11.20
2022-10-31T05:35:57.338Z,11.30
2022-10-31T05:38:49.434Z,11.30
2022-10-31T05:41:41.537Z,11.20
2022-10-31T05:44:33.657Z,11.20
2022-10-31T05:47:26.283Z,11.20
2022-10-31T05:50:18.691Z,11.20
2022-10-31T05:53:10.953Z,11.20
2022-10-31T05:56:03.055Z,11.10
2022-10-31T05:58:55.256Z,11.10
2022-10-31T06:01:47.464Z,11.00
2022-10-31T06:04:40.089Z,11.10
2022-10-31T06:07:36.374Z,10.90
2022-10-31T06:10:28.951Z,10.80
2022-10-31T06:13:21.070Z,10.80
2022-10-31T06:16:13.188Z,10.70
2022-10-31T06:19:05.408Z,10.80
2022-10-31T06:21:57.548Z,10.70
2022-10-31T06:24:49.641Z,10.70
2022-10-31T06:27:41.819Z,10.70
2022-10-31T06:30:34.105Z,10.70
2022-10-31T06:33:26.224Z,10.70
2022-10-31T06:36:18.404Z,10.70
2022-10-31T06:39:10.545Z,10.60
2022-10-31T06:42:03.128Z,10.50
2022-10-31T06:44:55.277Z,10.50
2022-10-31T06:48:16.148Z,10.60
2022-10-31T06:51:07.043Z,10.70
2022-10-31T06:53:59.164Z,10.70
2022-10-31T06:56:51.552Z,10.70
2022-10-31T06:59:43.761Z,10.70
2022-10-31T07:02:35.928Z,10.70
2022-10-31T07:05:29.229Z,10.70
2022-10-31T07:08:21.358Z,10.80
2022-10-31T07:11:13.494Z,10.70
2022-10-31T07:14:05.651Z,10.60
2022-10-31T07:16:57.793Z,10.60
2022-10-31T07:19:49.874Z,10.70
2022-10-31T07:22:43.804Z,10.80
2022-10-31T07:25:38.844Z,10.60
2022-10-31T07:28:31.337Z,10.70
2022-10-31T07:31:23.555Z,10.60
2022-10-31T07:34:16.823Z,10.70
2022-10-31T07:37:08.937Z,10.80
2022-10-31T07:40:01.041Z,10.80
2022-10-31T07:42:53.965Z,10.80
2022-10-31T07:45:54.035Z,10.80
2022-10-31T07:48:46.250Z,10.90
2022-10-31T07:51:39.711Z,10.90
2022-10-31T07:54:34.873Z,10.90
2022-10-31T07:57:30.633Z,10.90
2022-10-31T08:00:26.618Z,10.90
2022-10-31T08:03:20.049Z,11.00
2022-10-31T08:06:12.212Z,11.10
2022-10-31T08:09:04.348Z,11.10
2022-10-31T08:11:56.455Z,11.10
2022-10-31T08:14:48.887Z,11.20
2022-10-31T08:17:41.410Z,11.20
2022-10-31T08:20:33.936Z,11.20
2022-10-31T08:23:26.122Z,11.20
2022-10-31T08:26:18.217Z,11.20
2022-10-31T08:29:10.430Z,11.10
2022-10-31T08:32:02.570Z,11.00
2022-10-31T08:34:54.658Z,10.90
2022-10-31T08:37:46.777Z,11.00
2022-10-31T08:40:39.311Z,11.10
2022-10-31T08:43:31.424Z,11.10
2022-10-31T08:46:23.595Z,11.10
2022-10-31T08:49:15.745Z,11.10
2022-10-31T08:52:12.040Z,11.00
2022-10-31T08:55:06.986Z,11.00
2022-10-31T08:58:00.272Z,11.00
2022-10-31T09:00:54.113Z,11.20
2022-10-31T09:03:46.643Z,11.20
2022-10-31T09:06:46.393Z,11.20
2022-10-31T09:09:47.794Z,11.30
2022-10-31T09:12:39.937Z,11.30
2022-10-31T09:15:32.169Z,11.30
2022-10-31T09:18:24.749Z,11.30
2022-10-31T09:21:16.883Z,11.40
2022-10-31T09:24:09.100Z,11.40
2022-10-31T09:27:01.208Z,11.50
2022-10-31T09:29:53.336Z,11.50
2022-10-31T09:32:45.490Z,11.50
2022-10-31T09:35:37.871Z,11.50
2022-10-31T09:38:30.029Z,11.40
2022-10-31T09:41:59.475Z,11.40
2022-10-31T09:45:00.529Z,11.40
2022-10-31T09:48:28.654Z,11.40
2022-10-31T09:51:30.225Z,11.40
2022-10-31T09:54:47.476Z,11.30
2022-10-31T09:57:41.935Z,11.40
2022-10-31T10:00:35.580Z,11.30
2022-10-31T10:03:45.725Z,11.40
2022-10-31T10:06:47.847Z,11.40
2022-10-31T10:09:40.025Z,11.50
2022-10-31T10:12:48.107Z,11.50
2022-10-31T10:16:04.253Z,11.50
2022-10-31T10:19:32.814Z,11.50
2022-10-31T10:22:33.468Z,11.50
2022-10-31T10:25:34.452Z,11.60
2022-10-31T10:28:39.609Z,11.70
2022-10-31T10:31:39.696Z,11.70
2022-10-31T10:34:40.871Z,11.70
2022-10-31T10:37:39.414Z,11.80
2022-10-31T10:40:31.588Z,11.80
2022-10-31T10:43:37.615Z,11.80
2022-10-31T10:47:00.077Z,11.70
2022-10-31T10:49:53.195Z,11.80
2022-10-31T10:53:33.582Z,11.80
2022-10-31T10:56:48.703Z,11.70
2022-10-31T10:59:41.054Z,11.70
2022-10-31T11:02:34.075Z,11.60
2022-10-31T11:05:34.083Z,11.70
2022-10-31T11:08:27.681Z,11.80
2022-10-31T11:11:28.670Z,11.80
2022-10-31T11:14:21.550Z,11.70
2022-10-31T11:17:36.901Z,11.70
2022-10-31T11:20:37.304Z,11.80
2022-10-31T11:23:30.076Z,11.70
2022-10-31T11:26:22.722Z,11.70
2022-10-31T11:29:33.182Z,11.80
2022-10-31T11:32:27.600Z,11.80
2022-10-31T11:35:23.271Z,11.80
2022-10-31T11:38:21.114Z,11.90
2022-10-31T11:41:34.656Z,11.90
2022-10-31T11:44:29.950Z,11.90
2022-10-31T11:47:33.633Z,11.80
2022-10-31T11:50:48.084Z,11.80
2022-10-31T11:53:58.401Z,11.90
2022-10-31T11:56:54.017Z,11.80
2022-10-31T11:59:53.512Z,11.80
2022-10-31T12:02:45.827Z,11.90
2022-10-31T12:05:40.568Z,11.90
2022-10-31T12:08:35.960Z,12.10
2022-10-31T12:11:31.128Z,12.10
2022-10-31T12:14:33.100Z,12.10
2022-10-31T12:17:55.502Z,12.20
2022-10-31T12:21:17.049Z,12.10
2022-10-31T12:24:19.770Z,12.10
2022-10-31T12:27:42.153Z,12.10
2022-10-31T12:30:52.242Z,12.10
2022-10-31T12:33:56.495Z,12.10
2022-10-31T12:37:25.516Z,12.20
2022-10-31T12:40:34.032Z,12.20
2022-10-31T12:43:37.667Z,12.20
2022-10-31T12:46:52.973Z,12.20
2022-10-31T12:50:03.539Z,12.20
2022-10-31T12:53:10.809Z,12.20
2022-10-31T12:56:21.184Z,12.20
2022-10-31T12:59:22.524Z,12.10
2022-10-31T13:02:33.212Z,12.10
2022-10-31T13:05:30.579Z,12.10
2022-10-31T13:08:43.948Z,12.00
2022-10-31T13:11:43.129Z,12.00
2022-10-31T13:14:43.013Z,12.00
2022-10-31T13:17:40.790Z,12.10
2022-10-31T13:20:53.097Z,12.10
2022-10-31T13:23:52.419Z,12.00
2022-10-31T13:26:50.018Z,12.10
2022-10-31T13:30:00.596Z,12.00
2022-10-31T13:33:36.266Z,11.90
2022-10-31T13:36:49.588Z,12.00
2022-10-31T13:40:07.931Z,12.00
2022-10-31T13:43:04.206Z,12.00
2022-10-31T13:45:57.137Z,12.00
2022-10-31T13:48:49.413Z,12.00
2022-10-31T13:51:41.655Z,12.00
2022-10-31T13:54:36.298Z,12.10
2022-10-31T13:57:44.248Z,12.10
2022-10-31T14:00:37.438Z,12.00
2022-10-31T14:03:57.484Z,11.90
2022-10-31T14:06:49.025Z,11.90
2022-10-31T14:10:07.205Z,11.90
2022-10-31T14:13:18.139Z,11.90
2022-10-31T14:16:21.797Z,11.80
2022-10-31T14:19:20.785Z,11.90
2022-10-31T14:22:23.041Z,11.80
2022-10-31T14:25:33.624Z,11.90
2022-10-31T14:28:36.792Z,11.80
2022-10-31T14:31:29.043Z,11.80
2022-10-31T14:34:39.426Z,11.80
2022-10-31T14:38:22.553Z,11.80
2022-10-31T14:41:41.384Z,11.70
2022-10-31T14:45:06.933Z,11.80
2022-10-31T14:48:32.672Z,11.70
2022-10-31T14:51:34.885Z,11.70
2022-10-31T14:54:32.377Z,11.70
2022-10-31T14:57:29.684Z,11.50
2022-10-31T15:00:23.997Z,11.40
2022-10-31T15:03:17.511Z,11.50
2022-10-31T15:06:15.812Z,11.40
2022-10-31T15:09:23.505Z,11.40
2022-10-31T15:12:24.776Z,11.40
2022-10-31T15:15:25.556Z,11.40
2022-10-31T15:18:18.798Z,11.30
2022-10-31T15:21:12.522Z,11.20
2022-10-31T15:24:04.932Z,11.20
2022-10-31T15:27:00.975Z,11.10
2022-10-31T15:29:57.657Z,11.10
2022-10-31T15:32:58.145Z,11.10
2022-10-31T15:35:59.484Z,11.00
2022-10-31T15:38:52.002Z,11.00
2022-10-31T15:41:59.041Z,10.90
2022-10-31T15:44:59.670Z,10.90
2022-10-31T15:48:05.640Z,10.90
2022-10-31T15:50:58.743Z,10.90
2022-10-31T15:53:55.393Z,10.90
2022-10-31T15:56:48.411Z,11.00
2022-10-31T15:59:42.805Z,10.90
2022-10-31T16:02:35.338Z,10.90
2022-10-31T16:05:38.994Z,10.90
2022-10-31T16:08:31.075Z,10.90
2022-10-31T16:11:30.491Z,10.90
2022-10-31T16:14:32.717Z,10.90
2022-10-31T16:17:27.534Z,10.90
2022-10-31T16:20:25.933Z,10.80
2022-10-31T16:23:19.489Z,10.80
2022-10-31T16:26:17.935Z,10.90
2022-10-31T16:29:30.065Z,10.90
2022-10-31T16:32:28.351Z,11.00
2022-10-31T16:35:38.138Z,11.00
2022-10-31T16:38:30.271Z,11.10
2022-10-31T16:41:24.016Z,11.10
2022-10-31T16:44:19.030Z,11.10
2022-10-31T16:47:11.180Z,11.10
2022-10-31T16:50:06.567Z,11.10
2022-10-31T16:53:14.952Z,11.10
2022-10-31T16:56:22.879Z,11.20
2022-10-31T16:59:16.499Z,11.20
2022-10-31T17:02:15.995Z,11.20
2022-10-31T17:05:12.391Z,11.20
2022-10-31T17:08:04.773Z,11.20
2022-10-31T17:10:58.852Z,11.20
2022-10-31T17:13:51.089Z,11.10
2022-10-31T17:16:45.708Z,11.10
2022-10-31T17:19:37.830Z,11.00
2022-10-31T17:22:30.199Z,10.90
2022-10-31T17:25:28.568Z,10.90
2022-10-31T17:28:25.381Z,10.90
2022-10-31T17:31:21.683Z,10.80
2022-10-31T17:34:13.812Z,10.80
2022-10-31T17:37:05.964Z,10.70
2022-10-31T17:39:58.216Z,10.70
2022-10-31T17:42:55.472Z,10.70
2022-10-31T17:45:47.672Z,10.60
2022-10-31T17:48:39.868Z,10.60
2022-10-31T17:51:32.058Z,10.60
2022-10-31T17:54:24.179Z,10.60
2022-10-31T17:57:16.326Z,10.60
2022-10-31T18:00:12.559Z,10.60
2022-10-31T18:03:05.319Z,10.50
2022-10-31T18:05:59.497Z,10.50
2022-10-31T18:08:51.723Z,10.50
2022-10-31T18:11:44.134Z,10.50
2022-10-31T18:14:36.274Z,10.50
2022-10-31T18:17:28.446Z,10.50
2022-10-31T18:20:20.559Z,10.50
2022-10-31T18:23:13.038Z,10.40
2022-10-31T18:26:05.340Z,10.50
2022-10-31T18:28:57.825Z,10.50
2022-10-31T18:31:53.481Z,10.50
2022-10-31T18:34:45.601Z,10.50
2022-10-31T18:37:37.708Z,10.50
2022-10-31T18:40:29.872Z,10.50
2022-10-31T18:43:22.129Z,10.40
2022-10-31T18:46:16.005Z,10.50
2022-10-31T18:49:09.314Z,10.40
2022-10-31T18:52:01.425Z,10.40
2022-10-31T18:54:53.541Z,10.40
2022-10-31T18:57:46.611Z,10.40
2022-10-31T19:00:38.776Z,10.30
2022-10-31T19:03:30.878Z,10.30
2022-10-31T19:06:24.690Z,10.30
2022-10-31T19:09:16.814Z,10.40
2022-10-31T19:12:09.196Z,10.40
2022-10-31T19:15:01.430Z,10.40
2022-10-31T19:17:54.518Z,10.40
2022-10-31T19:20:46.620Z,10.30
2022-10-31T19:23:39.324Z,10.40
2022-10-31T19:26:33.709Z,10.40
2022-10-31T19:29:26.454Z,10.30
2022-10-31T19:32:18.644Z,10.30
2022-10-31T19:35:11.625Z,10.40
2022-10-31T19:38:04.205Z,10.40
2022-10-31T19:41:02.223Z,10.40
2022-10-31T19:43:54.892Z,10.40
2022-10-31T19:46:53.292Z,10.40
2022-10-31T19:49:45.829Z,10.40
2022-10-31T19:52:38.222Z,10.40
2022-10-31T19:55:30.372Z,10.30
2022-10-31T19:58:22.514Z,10.30
2022-10-31T20:01:18.249Z,10.30
2022-10-31T20:04:10.948Z,10.30
2022-10-31T20:07:03.119Z,10.20
2022-10-31T20:09:55.298Z,10.20
2022-10-31T20:12:47.428Z,10.30
2022-10-31T20:15:39.547Z,10.30
2022-10-31T20:18:32.236Z,10.30
2022-10-31T20:21:26.546Z,10.30
2022-10-31T20:24:19.002Z,10.30
2022-10-31T20:27:11.093Z,10.30
2022-10-31T20:30:03.700Z,10.30
2022-10-31T20:32:55.830Z,10.30
2022-10-31T20:35:48.005Z,10.30
2022-10-31T20:38:41.985Z,10.20
2022-10-31T20:41:37.938Z,10.30
2022-10-31T20:44:30.181Z,10.30
2022-10-31T20:47:25.695Z,10.30
2022-10-31T20:50:18.075Z,10.30
2022-10-31T20:53:10.231Z,10.30
2022-10-31T20:56:07.804Z,10.30
2022-10-31T20:59:00.043Z,10.20
2022-10-31T21:01:52.330Z,10.20
2022-10-31T21:04:44.568Z,10.30
2022-10-31T21:07:37.460Z,10.30
2022-10-31T21:10:29.996Z,10.30
2022-10-31T21:13:22.275Z,10.30
2022-10-31T21:16:17.435Z,10.30
2022-10-31T21:19:09.620Z,10.20
2022-10-31T21:22:02.560Z,10.30
2022-10-31T21:24:54.650Z,10.30
2022-10-31T21:27:46.879Z,10.30
2022-10-31T21:30:47.232Z,10.30
2022-10-31T21:33:39.866Z,10.30
2022-10-31T21:36:32.205Z,10.30
2022-10-31T21:39:24.356Z,10.30
2022-10-31T21:42:20.459Z,10.30
2022-10-31T21:45:13.786Z,10.30
2022-10-31T21:48:06.155Z,10.30
2022-10-31T21:51:03.294Z,10.30
2022-10-31T21:54:14.866Z,10.30
2022-10-31T21:57:07.073Z,10.30
2022-10-31T21:59:59.300Z,10.40
2022-10-31T22:02:51.409Z,10.30
2022-10-31T22:05:43.496Z,10.30
2022-10-31T22:08:35.908Z,10.30
2022-10-31T22:11:28.667Z,10.40
2022-10-31T22:14:20.882Z,10.40
2022-10-31T22:17:12.981Z,10.40
2022-10-31T22:20:05.598Z,10.30
2022-10-31T22:22:57.706Z,10.30
2022-10-31T22:25:49.805Z,10.20
2022-10-31T22:28:44.198Z,10.20
2022-10-31T22:31:40.555Z,10.20
2022-10-31T22:34:32.659Z,10.20
2022-10-31T22:37:24.748Z,10.20
2022-10-31T22:40:17.907Z,10.20
2022-10-31T22:43:10.034Z,10.20
2022-10-31T22:46:05.254Z,10.20
2022-10-31T22:49:02.989Z,10.20
2022-10-31T22:51:56.004Z,10.20
2022-10-31T22:54:48.100Z,10.20
2022-10-31T22:57:40.240Z,10.10
2022-10-31T23:00:32.351Z,10.10
2022-10-31T23:03:25.117Z,10.10
2022-10-31T23:06:19.910Z,10.10
2022-10-31T23:09:14.976Z,10.00
2022-10-31T23:12:26.018Z,10.00
2022-10-31T23:15:18.129Z,10.00
2022-10-31T23:18:23.856Z,10.00
2022-10-31T23:21:44.082Z,10.00
2022-10-31T23:24:37.729Z,10.00
2022-10-31T23:27:29.907Z,10.00
2022-10-31T23:30:22.028Z,10.00
2022-10-31T23:33:14.162Z,10.00
2022-10-31T23:36:06.608Z,10.00
2022-10-31T23:38:58.733Z,10.00
2022-10-31T23:41:50.958Z,9.90
2022-10-31T23:44:43.263Z,10.00
2022-10-31T23:47:38.352Z,10.00
2022-10-31T23:50:32.885Z,10.00
2022-10-31T23:53:25.069Z,10.00
2022-10-31T23:56:17.220Z,10.00
2022-10-31T23:59:09.505Z,10.00
